createdAt,value
2023-04-12T00:01:04.512Z,8.00
2023-04-12T00:03:36.786Z,6.50
2023-04-12T00:06:10.579Z,15.60
2023-04-12T00:08:42.986Z,16.33
2023-04-12T00:11:15.834Z,21.05
2023-04-12T00:13:48.152Z,24.73
2023-04-12T00:16:20.587Z,23.92
2023-04-12T00:18:52.743Z,19.40
2023-04-12T00:21:28.951Z,19.83
2023-04-12T00:24:01.537Z,12.52
2023-04-12T00:26:33.591Z,12.07
2023-04-12T00:29:05.622Z,13.50
2023-04-12T00:31:37.796Z,15.30
2023-04-12T00:34:09.971Z,8.07
2023-04-12T00:36:42.039Z,9.73
2023-04-12T00:39:14.101Z,8.10
2023-04-12T00:41:46.190Z,9.93
2023-04-12T00:44:18.448Z,10.00
2023-04-12T00:46:51.237Z,9.55
2023-04-12T00:49:23.370Z,8.25
2023-04-12T00:51:55.595Z,10.00
2023-04-12T00:54:27.670Z,9.10
2023-04-12T00:57:01.340Z,8.20
2023-04-12T00:59:33.528Z,10.63
2023-04-12T01:02:07.005Z,7.47
2023-04-12T01:04:39.826Z,7.07
2023-04-12T01:07:45.209Z,10.20
2023-04-12T01:10:19.853Z,9.18
2023-04-12T01:13:11.981Z,9.07
2023-04-12T01:16:24.204Z,12.30
2023-04-12T01:19:05.195Z,13.63
2023-04-12T01:22:13.741Z,5.03
2023-04-12T01:25:04.485Z,5.30
2023-04-12T01:27:45.833Z,13.07
2023-04-12T01:30:21.200Z,8.38
2023-04-12T01:32:55.844Z,10.63
2023-04-12T01:35:34.569Z,14.13
2023-04-12T01:38:07.653Z,14.80
2023-04-12T01:40:42.795Z,7.72
2023-04-12T01:43:16.307Z,10.30
2023-04-12T01:45:48.506Z,9.07
2023-04-12T01:48:20.999Z,8.45
2023-04-12T01:51:11.091Z,8.18
2023-04-12T01:53:55.252Z,11.93
2023-04-12T01:56:32.263Z,7.38
2023-04-12T01:59:05.574Z,11.93
2023-04-12T02:01:37.939Z,7.38
2023-04-12T02:04:10.964Z,8.50
2023-04-12T02:06:43.939Z,8.45
2023-04-12T02:09:16.273Z,6.35
2023-04-12T02:11:49.569Z,7.63
2023-04-12T02:14:22.185Z,13.27
2023-04-12T02:16:55.241Z,9.68
2023-04-12T02:19:27.333Z,11.82
2023-04-12T02:21:59.428Z,7.50
2023-04-12T02:24:31.923Z,10.77
2023-04-12T02:27:04.100Z,11.60
2023-04-12T02:29:36.189Z,11.50
2023-04-12T02:32:08.351Z,10.30
2023-04-12T02:34:40.530Z,7.93
2023-04-12T02:37:14.038Z,10.50
2023-04-12T02:39:46.086Z,8.25
2023-04-12T02:42:18.284Z,7.28
2023-04-12T02:44:50.443Z,8.32
2023-04-12T02:47:22.577Z,6.18
2023-04-12T02:49:55.315Z,11.07
2023-04-12T02:52:29.057Z,10.85
2023-04-12T02:55:01.167Z,11.40
2023-04-12T02:57:33.223Z,8.73
2023-04-12T03:00:12.552Z,13.88
2023-04-12T03:02:45.335Z,7.40
2023-04-12T03:05:17.977Z,10.27
2023-04-12T03:07:50.018Z,11.63
2023-04-12T03:10:22.262Z,15.30
2023-04-12T03:12:54.339Z,10.75
2023-04-12T03:15:28.305Z,10.27
2023-04-12T03:18:00.720Z,14.60
2023-04-12T03:20:33.733Z,7.88
2023-04-12T03:23:06.006Z,9.32
2023-04-12T03:25:38.779Z,10.98
2023-04-12T03:28:11.198Z,10.30
2023-04-12T03:30:43.331Z,10.90
2023-04-12T03:33:15.460Z,9.80
2023-04-12T03:35:47.537Z,13.48
2023-04-12T03:38:19.653Z,9.68
2023-04-12T03:40:51.695Z,8.20
2023-04-12T03:43:23.804Z,10.80
2023-04-12T03:45:55.890Z,11.60
2023-04-12T03:48:27.941Z,6.97
2023-04-12T03:51:00.345Z,11.13
2023-04-12T03:53:32.399Z,9.48
2023-04-12T03:56:04.996Z,13.73
2023-04-12T03:58:37.032Z,11.00
2023-04-12T04:01:09.453Z,8.27
2023-04-12T04:03:41.794Z,10.00
2023-04-12T04:06:13.933Z,13.27
2023-04-12T04:08:46.200Z,8.60
2023-04-12T04:11:18.344Z,16.70
2023-04-12T04:13:50.719Z,11.85
2023-04-12T04:16:23.124Z,12.15
2023-04-12T04:18:55.305Z,12.98
2023-04-12T04:21:30.624Z,9.07
2023-04-12T04:24:02.883Z,10.32
2023-04-12T04:26:35.068Z,10.52
2023-04-12T04:29:07.122Z,12.95
2023-04-12T04:31:39.267Z,8.65
2023-04-12T04:34:12.858Z,15.23
2023-04-12T04:36:45.178Z,10.70
2023-04-12T04:39:17.370Z,14.38
2023-04-12T04:41:55.009Z,12.38
2023-04-12T04:44:27.334Z,10.40
2023-04-12T04:47:00.917Z,15.38
2023-04-12T04:49:34.018Z,15.05
2023-04-12T04:52:07.413Z,10.57
2023-04-12T04:54:40.256Z,8.77
2023-04-12T04:57:12.364Z,10.05
2023-04-12T04:59:44.443Z,9.80
2023-04-12T05:02:19.075Z,10.85
2023-04-12T05:04:51.508Z,10.75
2023-04-12T05:07:23.880Z,15.70
2023-04-12T05:09:56.052Z,13.57
2023-04-12T05:12:28.072Z,14.55
2023-04-12T05:15:11.224Z,10.80
2023-04-12T05:17:44.330Z,8.13
2023-04-12T05:20:16.859Z,7.88
2023-04-12T05:22:48.943Z,15.30
2023-04-12T05:25:21.310Z,18.35
2023-04-12T05:27:54.049Z,13.23
2023-04-12T05:30:26.221Z,8.13
2023-04-12T05:32:58.310Z,12.27
2023-04-12T05:35:31.605Z,14.30
2023-04-12T05:38:03.747Z,13.48
2023-04-12T05:40:36.663Z,15.20
2023-04-12T05:43:12.621Z,13.20
2023-04-12T05:45:45.700Z,12.35
2023-04-12T05:48:19.029Z,10.27
2023-04-12T05:50:52.829Z,15.30
2023-04-12T05:53:24.901Z,9.43
2023-04-12T05:55:56.969Z,13.82
2023-04-12T05:58:29.001Z,7.50
2023-04-12T06:01:01.195Z,10.57
2023-04-12T06:03:33.614Z,15.75
2023-04-12T06:06:06.504Z,9.50
2023-04-12T06:08:38.766Z,11.70
2023-04-12T06:11:12.260Z,10.07
2023-04-12T06:13:44.327Z,10.38
2023-04-12T06:16:16.431Z,12.90
2023-04-12T06:18:48.473Z,15.20
2023-04-12T06:21:20.602Z,12.40
2023-04-12T06:23:52.749Z,13.05
2023-04-12T06:26:24.873Z,12.48
2023-04-12T06:28:58.637Z,15.70
2023-04-12T06:31:31.809Z,6.63
2023-04-12T06:34:03.994Z,18.90
2023-04-12T06:36:38.334Z,10.05
2023-04-12T06:39:12.236Z,12.30
2023-04-12T06:41:44.378Z,13.57
2023-04-12T06:44:17.111Z,11.95
2023-04-12T06:46:49.376Z,10.25
2023-04-12T06:49:21.490Z,10.75
2023-04-12T06:51:53.605Z,11.02
2023-04-12T06:54:25.678Z,11.40
2023-04-12T06:56:57.947Z,8.50
2023-04-12T06:59:30.045Z,15.60
2023-04-12T07:02:02.161Z,7.90
2023-04-12T07:04:34.294Z,7.82
2023-04-12T07:07:07.033Z,9.25
2023-04-12T07:09:39.112Z,10.15
2023-04-12T07:12:11.165Z,10.65
2023-04-12T07:14:44.782Z,11.88
2023-04-12T07:17:17.067Z,19.77
2023-04-12T07:19:50.568Z,14.07
2023-04-12T07:22:23.016Z,10.15
2023-04-12T07:24:55.314Z,12.35
2023-04-12T07:27:27.504Z,13.43
2023-04-12T07:29:59.984Z,9.15
2023-04-12T07:32:32.237Z,11.18
2023-04-12T07:35:05.150Z,9.43
2023-04-12T07:37:38.059Z,7.70
2023-04-12T07:40:10.237Z,9.88
2023-04-12T07:42:42.330Z,9.52
2023-04-12T07:45:14.616Z,11.50
2023-04-12T07:47:46.798Z,11.13
2023-04-12T07:50:49.044Z,13.68
2023-04-12T07:53:26.921Z,8.68
2023-04-12T07:55:59.039Z,12.05
2023-04-12T07:58:31.685Z,9.45
2023-04-12T08:01:04.074Z,8.50
2023-04-12T08:03:36.337Z,6.07
2023-04-12T08:06:08.975Z,11.98
2023-04-12T08:08:41.480Z,6.72
2023-04-12T08:11:13.897Z,6.40
2023-04-12T08:13:46.658Z,11.15
2023-04-12T08:16:18.840Z,15.40
2023-04-12T08:18:51.088Z,8.43
2023-04-12T08:21:23.416Z,10.52
2023-04-12T08:23:55.851Z,12.48
2023-04-12T08:26:29.940Z,10.43
2023-04-12T08:29:02.099Z,5.10
2023-04-12T08:31:34.564Z,15.38
2023-04-12T08:34:06.728Z,8.52
2023-04-12T08:36:38.821Z,9.27
2023-04-12T08:39:11.061Z,11.80
2023-04-12T08:41:43.655Z,10.38
2023-04-12T08:44:17.254Z,14.95
2023-04-12T08:46:50.693Z,18.75
2023-04-12T08:49:25.243Z,15.45
2023-04-12T08:52:02.114Z,7.15
2023-04-12T08:54:35.667Z,9.23
2023-04-12T08:57:09.899Z,10.63
2023-04-12T08:59:43.953Z,9.88
2023-04-12T09:02:16.306Z,5.82
2023-04-12T09:04:50.485Z,18.73
2023-04-12T09:07:23.841Z,8.07
2023-04-12T09:09:56.914Z,9.30
2023-04-12T09:12:29.139Z,4.95
2023-04-12T09:15:13.983Z,12.45
2023-04-12T09:17:46.646Z,7.82
2023-04-12T09:20:18.942Z,6.88
2023-04-12T09:22:52.884Z,7.57
2023-04-12T09:25:45.876Z,7.65
2023-04-12T09:28:23.644Z,8.60
2023-04-12T09:30:58.357Z,7.63
2023-04-12T09:33:39.696Z,11.82
2023-04-12T09:36:17.096Z,7.72
2023-04-12T09:39:04.401Z,11.10
2023-04-12T09:41:36.632Z,8.15
2023-04-12T09:44:08.804Z,8.52
2023-04-12T09:46:52.299Z,16.02
2023-04-12T09:50:34.074Z,7.93
2023-04-12T09:53:19.992Z,10.63
2023-04-12T09:55:52.548Z,11.60
2023-04-12T09:59:43.374Z,10.43
2023-04-12T10:02:18.766Z,7.32
2023-04-12T10:04:51.720Z,15.52
2023-04-12T10:07:24.016Z,9.23
2023-04-12T10:10:02.835Z,9.75
2023-04-12T10:12:38.290Z,7.45
2023-04-12T10:15:18.013Z,10.50
2023-04-12T10:17:54.302Z,5.90
2023-04-12T10:20:29.284Z,6.70
2023-04-12T10:23:03.071Z,13.38
2023-04-12T10:25:35.265Z,6.40
2023-04-12T10:28:19.772Z,9.30
2023-04-12T10:30:54.716Z,9.82
2023-04-12T10:33:31.032Z,7.15
2023-04-12T10:36:07.248Z,12.00
2023-04-12T10:39:08.732Z,8.48
2023-04-12T10:42:20.950Z,8.77
2023-04-12T10:44:58.730Z,8.18
2023-04-12T10:47:59.308Z,11.83
2023-04-12T10:50:34.231Z,6.13
2023-04-12T10:53:18.450Z,7.97
2023-04-12T10:55:51.291Z,7.53
2023-04-12T10:58:48.445Z,6.28
2023-04-12T11:01:22.062Z,6.05
2023-04-12T11:04:17.561Z,5.40
2023-04-12T11:06:55.391Z,4.22
2023-04-12T11:09:35.279Z,5.90
2023-04-12T11:12:09.563Z,6.55
2023-04-12T11:14:46.071Z,5.80
2023-04-12T11:17:18.215Z,15.70
2023-04-12T11:20:04.145Z,5.95
2023-04-12T11:22:38.785Z,5.25
2023-04-12T11:25:10.904Z,9.07
2023-04-12T11:27:51.645Z,5.80
2023-04-12T11:30:25.816Z,10.30
2023-04-12T11:32:57.924Z,8.68
2023-04-12T11:35:31.822Z,7.85
2023-04-12T11:38:04.411Z,8.23
2023-04-12T11:40:36.523Z,10.85
2023-04-12T11:43:08.592Z,5.80
2023-04-12T11:45:41.110Z,9.23
2023-04-12T11:48:13.566Z,5.13
2023-04-12T11:51:07.871Z,9.63
2023-04-12T11:53:46.110Z,4.75
2023-04-12T11:56:18.259Z,7.22
2023-04-12T11:58:51.192Z,4.90
2023-04-12T12:04:23.935Z,3.47
2023-04-12T12:06:59.754Z,5.22
2023-04-12T12:09:32.335Z,6.20
2023-04-12T12:12:04.801Z,9.00
2023-04-12T12:15:02.313Z,4.65
2023-04-12T12:17:40.256Z,17.63
2023-04-12T12:20:21.987Z,12.30
2023-04-12T12:22:57.533Z,6.45
2023-04-12T12:25:29.994Z,7.65
2023-04-12T12:28:05.741Z,7.82
2023-04-12T12:30:40.366Z,12.02
2023-04-12T12:33:14.443Z,8.85
2023-04-12T12:35:47.018Z,10.23
2023-04-12T12:39:11.777Z,7.65
2023-04-12T12:41:44.391Z,10.00
2023-04-12T12:44:16.507Z,6.63
2023-04-12T12:47:26.190Z,6.45
2023-04-12T12:49:58.409Z,5.85
2023-04-12T12:52:40.703Z,8.27
2023-04-12T12:58:31.328Z,5.78
2023-04-12T13:01:31.658Z,10.07
2023-04-12T13:04:10.272Z,5.63
2023-04-12T13:07:35.022Z,6.40
2023-04-12T13:10:08.681Z,5.25
2023-04-12T13:12:41.267Z,4.57
2023-04-12T13:17:49.605Z,12.85
2023-04-12T13:20:23.240Z,8.73
2023-04-12T13:22:56.227Z,5.57
2023-04-12T13:25:28.705Z,9.90
2023-04-12T13:28:02.073Z,7.78
2023-04-12T13:30:34.317Z,10.63
2023-04-12T13:33:44.075Z,10.98
2023-04-12T13:37:01.280Z,9.48
2023-04-12T13:46:44.097Z,7.80
2023-04-12T13:49:33.992Z,8.27
2023-04-12T13:52:10.461Z,15.65
2023-04-12T14:01:48.692Z,7.32
2023-04-12T14:05:04.355Z,6.65
2023-04-12T14:19:25.221Z,9.68
2023-04-12T14:45:28.529Z,8.40
2023-04-12T14:56:02.828Z,11.80
2023-04-12T14:58:36.436Z,8.30
2023-04-12T15:01:13.092Z,7.13
2023-04-12T15:03:46.313Z,5.75
2023-04-12T15:06:19.521Z,7.10
2023-04-12T15:08:55.237Z,8.35
2023-04-12T15:11:27.752Z,7.80
2023-04-12T15:14:00.329Z,6.18
2023-04-12T15:16:35.188Z,3.80
2023-04-12T15:19:17.051Z,6.13
2023-04-12T15:21:54.389Z,7.30
2023-04-12T15:24:27.456Z,5.07
2023-04-12T15:27:03.683Z,4.65
2023-04-12T15:29:42.645Z,3.22
2023-04-12T15:32:14.978Z,4.63
2023-04-12T15:35:26.395Z,4.95
2023-04-12T15:37:59.766Z,3.83
2023-04-12T15:40:32.305Z,5.90
2023-04-12T15:43:04.844Z,5.15
2023-04-12T15:45:42.925Z,5.60
2023-04-12T15:48:15.124Z,5.90
2023-04-12T15:50:48.978Z,7.90
2023-04-12T15:53:23.810Z,4.82
2023-04-12T15:55:56.263Z,4.70
2023-04-12T15:58:28.438Z,6.13
2023-04-12T16:01:00.524Z,4.72
2023-04-12T16:03:32.824Z,4.63
2023-04-12T16:06:05.436Z,7.13
2023-04-12T16:08:37.525Z,6.10
2023-04-12T16:11:12.345Z,5.05
2023-04-12T16:13:46.584Z,7.55
2023-04-12T16:16:21.772Z,7.78
2023-04-12T16:18:55.983Z,6.40
2023-04-12T16:21:28.642Z,4.57
2023-04-12T16:24:00.904Z,7.57
2023-04-12T16:26:33.861Z,4.90
2023-04-12T16:29:05.969Z,6.47
2023-04-12T16:31:38.997Z,4.68
2023-04-12T16:34:11.261Z,5.88
2023-04-12T16:36:43.810Z,8.35
2023-04-12T16:39:16.774Z,9.10
2023-04-12T16:41:48.896Z,7.93
2023-04-12T16:44:21.190Z,6.80
2023-04-12T16:46:54.266Z,7.15
2023-04-12T16:49:26.647Z,7.40
2023-04-12T16:51:59.646Z,7.40
2023-04-12T16:54:31.823Z,9.82
2023-04-12T16:57:04.233Z,11.07
2023-04-12T16:59:36.306Z,12.88
2023-04-12T17:02:08.912Z,8.32
2023-04-12T17:04:41.274Z,6.47
2023-04-12T17:07:13.382Z,7.40
2023-04-12T17:09:45.494Z,6.05
2023-04-12T17:12:17.637Z,6.55
2023-04-12T17:14:51.398Z,9.15
2023-04-12T17:17:23.879Z,7.68
2023-04-12T17:19:56.150Z,6.63
2023-04-12T17:22:28.836Z,7.07
2023-04-12T17:25:01.273Z,10.95
2023-04-12T17:27:34.675Z,7.53
2023-04-12T17:30:12.086Z,8.10
2023-04-12T17:32:47.663Z,11.15
2023-04-12T17:35:20.493Z,9.35
2023-04-12T17:37:52.778Z,11.00
2023-04-12T17:40:25.028Z,7.85
2023-04-12T17:42:57.117Z,11.88
2023-04-12T17:45:29.328Z,12.38
2023-04-12T17:48:01.480Z,10.52
2023-04-12T17:50:33.573Z,10.82
2023-04-12T17:53:06.046Z,11.45
2023-04-12T17:55:38.896Z,7.18
2023-04-12T17:58:11.030Z,16.85
2023-04-12T18:00:43.840Z,14.32
2023-04-12T18:03:16.076Z,11.77
2023-04-12T18:05:48.552Z,11.15
2023-04-12T18:08:24.209Z,20.95
2023-04-12T18:10:56.318Z,19.23
2023-04-12T18:13:28.492Z,18.08
2023-04-12T18:16:01.536Z,12.90
2023-04-12T18:18:33.894Z,13.43
2023-04-12T18:21:06.801Z,10.93
2023-04-12T18:23:38.942Z,15.88
2023-04-12T18:26:11.027Z,12.32
2023-04-12T18:28:43.096Z,16.17
2023-04-12T18:31:15.476Z,16.35
2023-04-12T18:33:47.861Z,18.45
2023-04-12T18:36:19.930Z,17.08
2023-04-12T18:38:52.034Z,14.60
2023-04-12T18:41:24.108Z,17.60
2023-04-12T18:43:57.484Z,11.80
2023-04-12T18:46:29.898Z,13.68
2023-04-12T18:49:05.092Z,9.38
2023-04-12T18:51:37.679Z,14.30
2023-04-12T18:54:13.389Z,11.75
2023-04-12T18:56:45.547Z,17.77
2023-04-12T18:59:17.999Z,14.30
2023-04-12T19:01:50.276Z,15.18
2023-04-12T19:04:22.963Z,14.95
2023-04-12T19:06:56.557Z,13.13
2023-04-12T19:09:29.281Z,13.43
2023-04-12T19:12:03.143Z,16.10
2023-04-12T19:14:35.294Z,17.77
2023-04-12T19:17:08.144Z,11.65
2023-04-12T19:19:40.489Z,12.02
2023-04-12T19:22:12.660Z,13.00
2023-04-12T19:24:44.776Z,18.15
2023-04-12T19:27:17.030Z,17.25
2023-04-12T19:29:51.875Z,10.65
2023-04-12T19:32:24.088Z,14.77
2023-04-12T19:34:56.578Z,15.80
2023-04-12T19:37:34.186Z,14.70
2023-04-12T19:40:12.651Z,18.70
2023-04-12T19:42:44.764Z,16.95
2023-04-12T19:45:17.472Z,21.10
2023-04-12T19:47:49.626Z,23.05
2023-04-12T19:50:22.074Z,19.50
2023-04-12T19:52:54.222Z,20.13
2023-04-12T19:55:26.481Z,21.38
2023-04-12T19:57:59.370Z,15.88
2023-04-12T20:00:32.008Z,21.10
2023-04-12T20:03:04.446Z,20.45
2023-04-12T20:05:36.893Z,23.05
2023-04-12T20:08:10.995Z,23.25
2023-04-12T20:10:43.227Z,22.58
2023-04-12T20:13:15.573Z,23.83
2023-04-12T20:15:47.661Z,17.02
2023-04-12T20:18:19.724Z,15.75
2023-04-12T20:20:53.360Z,24.45
2023-04-12T20:23:26.752Z,16.85
2023-04-12T20:25:58.911Z,14.93
2023-04-12T20:28:31.124Z,21.55
2023-04-12T20:31:04.797Z,19.30
2023-04-12T20:33:37.170Z,16.00
2023-04-12T20:36:10.861Z,17.38
2023-04-12T20:38:43.500Z,17.60
2023-04-12T20:41:15.624Z,16.30
2023-04-12T20:43:48.504Z,15.10
2023-04-12T20:46:25.974Z,24.00
2023-04-12T20:48:58.524Z,18.05
2023-04-12T20:51:30.910Z,13.07
2023-04-12T20:54:03.322Z,16.42
2023-04-12T20:56:36.441Z,17.73
2023-04-12T20:59:08.873Z,17.15
2023-04-12T21:01:43.360Z,16.80
2023-04-12T21:04:17.486Z,17.38
2023-04-12T21:06:50.746Z,19.38
2023-04-12T21:09:23.678Z,19.02
2023-04-12T21:15:50.513Z,20.25
2023-04-12T21:18:23.683Z,21.67
2023-04-12T21:21:00.020Z,21.15
2023-04-12T21:23:32.169Z,21.42
2023-04-12T21:26:04.392Z,16.38
2023-04-12T21:28:38.608Z,19.95
2023-04-12T21:31:11.387Z,21.13
2023-04-12T21:33:43.557Z,14.68
2023-04-12T21:36:15.802Z,22.85
2023-04-12T21:38:48.202Z,28.23
2023-04-12T21:41:21.542Z,27.70
2023-04-12T21:43:53.603Z,21.58
2023-04-12T21:46:27.853Z,22.77
2023-04-12T21:49:00.205Z,25.27
2023-04-12T21:51:32.992Z,23.73
2023-04-12T21:54:26.946Z,24.20
2023-04-12T21:56:59.410Z,25.25
2023-04-12T21:59:31.482Z,33.65
2023-04-12T22:02:03.692Z,30.27
2023-04-12T22:04:36.177Z,24.23
2023-04-12T22:07:12.720Z,21.00
2023-04-12T22:09:45.838Z,28.30
2023-04-12T22:12:18.274Z,25.15
2023-04-12T22:14:50.422Z,18.80
2023-04-12T22:17:22.798Z,24.13
2023-04-12T22:19:57.932Z,22.17
2023-04-12T22:22:30.182Z,29.88
2023-04-12T22:25:02.297Z,25.08
2023-04-12T22:27:34.439Z,25.70
2023-04-12T22:30:10.558Z,22.25
2023-04-12T22:32:42.680Z,31.80
2023-04-12T22:35:16.057Z,22.88
2023-04-12T22:37:48.485Z,23.55
2023-04-12T22:40:20.830Z,31.27
2023-04-12T22:42:53.993Z,27.55
2023-04-12T22:45:26.390Z,22.83
2023-04-12T22:47:58.512Z,21.27
2023-04-12T22:50:30.594Z,21.98
2023-04-12T22:53:03.446Z,22.73
2023-04-12T22:55:36.801Z,18.40
2023-04-12T22:58:08.970Z,28.08
2023-04-12T23:00:41.255Z,31.67
2023-04-12T23:03:13.332Z,31.73
2023-04-12T23:05:46.757Z,25.33
2023-04-12T23:08:20.313Z,27.95
2023-04-12T23:10:52.585Z,37.80
2023-04-12T23:13:24.777Z,34.10
2023-04-12T23:15:57.893Z,23.38
2023-04-12T23:18:30.090Z,33.15
2023-04-12T23:21:02.969Z,24.75
2023-04-12T23:23:34.998Z,25.80
2023-04-12T23:26:07.227Z,35.65
2023-04-12T23:28:40.553Z,53.58
2023-04-12T23:31:12.635Z,32.22
2023-04-12T23:35:02.287Z,27.58
2023-04-12T23:37:36.206Z,35.45
2023-04-12T23:40:15.132Z,29.63
2023-04-12T23:42:48.873Z,27.27
2023-04-12T23:45:21.123Z,35.60
2023-04-12T23:47:56.569Z,29.48
2023-04-12T23:50:29.404Z,38.97
2023-04-12T23:53:01.954Z,24.27
2023-04-12T23:55:34.826Z,30.45
2023-04-12T23:58:07.205Z,26.40
